Terminal Aerodrome Forecast
Issued by NWS Charleston, WV

Current Version | Previous Version | Graphics & Text | Print | Product List | Glossary Off
Versions: 1 2 3 4 5 6 7 8 9 10 11 12 13 14 15 16 17 18 19 20 21

626
FTUS41 KRLX 240250 AAA
TAFCRW
TAF AMD
KCRW 240250Z 2403/2424 VRB03KT P6SM VCSH OVC060
     FM240500 07004KT 6SM -RA BR OVC045
     FM240700 07004KT 6SM -RA BR OVC025
     FM241500 07005KT P6SM OVC020=

USA.gov is the U.S. government's official web portal to all federal, state and local government web resources and services.